Time;durP1;ratioP1;P1;durP2;ratioP2;P2;SDS_P1;SDS_P2;PMS_P1;PMS_P2;Temp;Humidity;BMP_temperature;BMP_pressure;BME280_temperature;BME280_humidity;BME280_pressure;Samples;Min_cycle;Max_cycle;Signal;HPM_P1;HPM_P2
2023/03/31 00:02:20;;;;;;;7.47;3.13;;;;;;;8.16;62.20;100635.94;5049222;28;20089;-73
2023/03/31 00:04:51;;;;;;;8.18;3.65;;;;;;;8.15;62.35;100640.22;5049324;28;20036;-71
2023/03/31 00:07:20;;;;;;;9.73;4.28;;;;;;;8.00;62.15;100632.63;5049228;28;20032;-71
2023/03/31 00:09:46;;;;;;;10.90;3.90;;;;;;;8.04;62.19;100649.09;5049465;28;20029;-72
2023/03/31 00:12:14;;;;;;;7.18;3.05;;;;;;;7.96;62.94;100648.69;5049258;28;20510;-72
2023/03/31 00:14:40;;;;;;;7.45;3.28;;;;;;;7.97;63.50;100645.31;5049007;28;20112;-71
2023/03/31 00:17:06;;;;;;;10.30;3.92;;;;;;;7.92;64.24;100642.53;5049691;28;20108;-71
2023/03/31 00:19:32;;;;;;;8.60;3.55;;;;;;;7.93;64.06;100628.84;5053076;28;20028;-71
2023/03/31 00:22:01;;;;;;;8.50;3.28;;;;;;;7.99;64.17;100627.38;5053090;28;20082;-71
2023/03/31 00:24:31;;;;;;;6.32;3.47;;;;;;;8.01;62.91;100611.25;5052650;28;20117;-73
2023/03/31 00:26:56;;;;;;;;;;;;;;;7.99;62.94;100617.09;5052831;28;20120;-73
2023/03/31 00:29:22;;;;;;;8.70;3.30;;;;;;;7.92;62.83;100621.06;5052919;28;20003;-73
2023/03/31 00:31:47;;;;;;;10.77;3.47;;;;;;;7.89;63.18;100616.66;5052744;28;20468;-73
2023/03/31 00:34:13;;;;;;;7.30;3.70;;;;;;;7.80;64.49;100610.16;5052703;28;20471;-71
2023/03/31 00:36:44;;;;;;;7.95;3.10;;;;;;;7.65;65.69;100615.41;5052762;28;20025;-72
2023/03/31 00:39:32;;;;;;;10.30;3.55;;;;;;;7.59;66.20;100616.88;5052577;28;20035;-73
2023/03/31 00:41:58;;;;;;;8.30;4.07;;;;;;;7.55;66.18;100601.22;5009985;28;20046;-74
2023/03/31 00:44:24;;;;;;;5.70;3.35;;;;;;;7.53;66.72;100579.72;5010302;28;20046;-73
2023/03/31 00:46:54;;;;;;;5.90;3.45;;;;;;;7.76;66.05;100616.84;5010209;28;20120;-74
2023/03/31 00:49:30;;;;;;;5.85;3.17;;;;;;;7.65;65.38;100600.00;5009786;28;20038;-72
2023/03/31 00:52:02;;;;;;;9.13;3.50;;;;;;;7.50;65.41;100597.53;5009538;28;20053;-71
2023/03/31 00:54:32;;;;;;;8.93;4.85;;;;;;;7.55;66.42;100611.50;5010060;28;20050;-75
2023/03/31 00:57:02;;;;;;;8.82;3.50;;;;;;;7.35;66.75;100587.34;5009026;28;20038;-73
2023/03/31 00:59:31;;;;;;;6.47;3.53;;;;;;;7.33;66.65;100553.88;4998137;28;20074;-73
2023/03/31 01:02:01;;;;;;;6.72;3.17;;;;;;;7.53;65.36;100593.44;5009933;28;20049;-71
2023/03/31 01:04:40;;;;;;;11.02;4.03;;;;;;;7.56;65.19;100603.88;5009662;28;20141;-71
2023/03/31 01:07:21;;;;;;;9.67;4.07;;;;;;;7.58;65.60;100591.09;5009757;28;20081;-72
2023/03/31 01:09:49;;;;;;;10.85;3.92;;;;;;;7.48;66.24;100594.88;5009959;28;21140;-73
2023/03/31 01:12:17;;;;;;;10.18;3.72;;;;;;;7.25;66.84;100594.59;5019045;28;20029;-73
2023/03/31 01:14:42;;;;;;;10.65;3.97;;;;;;;7.21;66.84;100589.19;5051956;28;20029;-73
2023/03/31 01:17:08;;;;;;;9.70;4.40;;;;;;;7.16;66.71;100593.22;5051535;28;20120;-72
2023/03/31 01:20:05;;;;;;;8.65;3.95;;;;;;;7.20;67.12;100595.13;5052120;28;20123;-73
2023/03/31 01:23:09;;;;;;;8.10;3.55;;;;;;;7.21;67.52;100599.47;5051995;28;20025;-71
2023/03/31 01:26:22;;;;;;;8.48;3.72;;;;;;;7.17;68.26;100584.72;5009394;28;20045;-76
2023/03/31 01:29:07;;;;;;;9.13;4.40;;;;;;;7.17;68.13;100579.59;4951332;28;20086;-71
2023/03/31 01:31:38;;;;;;;7.88;3.50;;;;;;;7.17;68.38;100572.75;4934618;29;20201;-71
2023/03/31 01:34:30;;;;;;;7.20;3.80;;;;;;;7.21;67.78;100564.41;4950855;29;20050;-71
2023/03/31 01:37:25;;;;;;;7.95;3.67;;;;;;;7.25;67.23;100555.16;4894146;29;20569;-72
2023/03/31 01:40:09;;;;;;;7.97;3.78;;;;;;;7.38;66.99;100549.88;4893775;29;20061;-73
2023/03/31 01:42:54;;;;;;;11.27;4.38;;;;;;;7.50;66.59;100544.47;4893870;29;20154;-74
2023/03/31 01:47:59;;;;;;;6.93;3.55;;;;;;;7.82;65.56;100539.19;5221564;22;20086;-74
2023/03/31 01:50:46;;;;;;;8.60;4.25;;;;;;;7.88;66.58;100530.06;5032579;28;20084;-72
2023/03/31 01:53:49;;;;;;;8.95;4.03;;;;;;;7.97;66.52;100536.47;5039483;28;20013;-74
2023/03/31 01:56:29;;;;;;;7.13;3.97;;;;;;;7.96;64.90;100530.44;5051903;28;20037;-74
2023/03/31 01:59:05;;;;;;;12.13;4.50;;;;;;;7.87;65.62;100512.00;5051845;28;20104;-71
2023/03/31 02:01:37;;;;;;;8.57;4.28;;;;;;;8.04;65.75;100533.41;5051307;28;20566;-73
2023/03/31 02:04:17;;;;;;;7.25;3.85;;;;;;;8.09;65.02;100522.50;5051589;28;20116;-72
2023/03/31 02:06:46;;;;;;;;;;;;;;;8.06;64.78;100526.63;5016273;28;20048;-73
2023/03/31 02:09:16;;;;;;;9.27;4.75;;;;;;;8.09;65.04;100524.22;5051262;28;19916;-74
2023/03/31 02:11:44;;;;;;;9.50;4.88;;;;;;;8.08;65.20;100515.59;5032806;28;20040;-72
2023/03/31 02:14:17;;;;;;;8.95;4.63;;;;;;;8.02;65.55;100520.44;5051210;28;20020;-73
2023/03/31 02:16:46;;;;;;;8.18;4.45;;;;;;;8.06;65.81;100522.38;5051560;28;20025;-73
2023/03/31 02:19:17;;;;;;;8.50;4.28;;;;;;;8.10;65.62;100523.41;5051198;28;20040;-73
2023/03/31 02:21:47;;;;;;;11.25;5.22;;;;;;;8.00;65.90;100510.91;5051301;28;20538;-72
2023/03/31 02:24:13;;;;;;;;;;;;;;;7.75;66.36;100525.13;5051770;28;20029;-74
2023/03/31 02:26:43;;;;;;;11.27;4.47;;;;;;;7.41;67.10;100529.50;5049016;28;19912;-73
2023/03/31 02:29:09;;;;;;;7.65;4.70;;;;;;;6.87;69.78;100544.66;5051052;28;20021;-73
2023/03/31 02:31:40;;;;;;;7.53;4.30;;;;;;;6.60;70.71;100524.44;5048602;28;20056;-74
2023/03/31 02:34:06;;;;;;;14.90;4.20;;;;;;;6.66;70.21;100529.00;5050641;28;20407;-73
2023/03/31 02:36:34;;;;;;;7.95;4.00;;;;;;;6.60;70.90;100524.44;5051131;28;20158;-74
2023/03/31 02:39:05;;;;;;;9.57;4.28;;;;;;;6.52;70.43;100522.25;5051047;28;20036;-72
2023/03/31 02:41:31;;;;;;;6.35;3.83;;;;;;;6.47;70.71;100509.19;5050784;28;20025;-73
2023/03/31 02:43:57;;;;;;;8.48;4.35;;;;;;;6.52;71.33;100529.94;5051013;28;20017;-72
2023/03/31 02:46:24;;;;;;;7.53;4.05;;;;;;;6.47;72.47;100522.00;5050744;28;20068;-73
2023/03/31 02:48:54;;;;;;;7.13;4.07;;;;;;;6.35;73.73;100540.16;5050796;28;20025;-73
2023/03/31 02:51:30;;;;;;;7.80;4.45;;;;;;;6.29;74.68;100530.47;5045424;28;20025;-74
2023/03/31 02:53:56;;;;;;;10.73;4.30;;;;;;;6.23;75.63;100529.22;5050337;28;20033;-75
2023/03/31 02:56:48;;;;;;;8.80;4.28;;;;;;;6.15;75.83;100528.81;5050103;28;20040;-75
2023/03/31 02:59:25;;;;;;;7.53;4.22;;;;;;;5.69;76.54;100467.28;5050220;28;20103;-74
2023/03/31 03:02:10;;;;;;;12.63;4.10;;;;;;;5.85;76.98;100531.38;5049989;28;20444;-74
2023/03/31 03:04:48;;;;;;;7.15;4.15;;;;;;;5.66;77.67;100540.56;5050246;28;20048;-74
2023/03/31 03:07:33;;;;;;;8.30;4.70;;;;;;;5.51;79.09;100529.44;5050056;28;20482;-73
2023/03/31 03:10:01;;;;;;;7.68;4.20;;;;;;;5.40;79.85;100522.81;5050287;28;20057;-74
2023/03/31 03:12:32;;;;;;;7.35;4.00;;;;;;;5.23;80.24;100506.47;5050200;28;20025;-74
2023/03/31 03:15:12;;;;;;;11.23;5.03;;;;;;;5.46;79.71;100535.97;5048071;28;20040;-74
2023/03/31 03:17:44;;;;;;;10.38;5.07;;;;;;;5.19;79.32;100546.34;5050041;28;20040;-74
2023/03/31 03:20:11;;;;;;;8.38;4.75;;;;;;;5.18;79.17;100532.69;5047685;28;20542;-73
2023/03/31 03:22:39;;;;;;;10.88;4.57;;;;;;;5.11;79.58;100515.19;5049869;28;20487;-75
2023/03/31 03:25:08;;;;;;;8.25;5.45;;;;;;;5.27;79.78;100516.06;5049631;28;20064;-75
2023/03/31 03:27:34;;;;;;;15.20;5.28;;;;;;;5.47;78.20;100523.25;5049770;28;20051;-75
2023/03/31 03:30:02;;;;;;;8.52;5.20;;;;;;;5.59;78.18;100525.63;5049664;28;20032;-75
2023/03/31 03:32:28;;;;;;;11.48;5.90;;;;;;;5.56;78.26;100512.66;5049119;28;20029;-75
2023/03/31 03:34:54;;;;;;;11.60;5.40;;;;;;;5.61;77.31;100524.06;5049930;28;20029;-75
2023/03/31 03:37:19;;;;;;;8.13;4.68;;;;;;;5.73;76.56;100526.47;5049337;28;20117;-77
2023/03/31 03:39:45;;;;;;;6.97;4.00;;;;;;;5.69;76.68;100521.94;5049363;28;20056;-71
2023/03/31 03:42:10;;;;;;;7.78;4.28;;;;;;;5.70;76.50;100530.53;5049382;28;20024;-74
2023/03/31 03:44:35;;;;;;;8.52;4.68;;;;;;;5.35;77.34;100525.09;5049292;28;20025;-70
2023/03/31 03:47:01;;;;;;;9.35;4.47;;;;;;;5.12;77.56;100516.06;5048457;28;20049;-70
2023/03/31 03:49:26;;;;;;;11.32;4.45;;;;;;;5.24;77.21;100528.72;5049490;28;20029;-73
2023/03/31 03:52:12;;;;;;;9.23;5.03;;;;;;;5.08;77.70;100524.34;4993551;28;20100;-72
2023/03/31 03:54:37;;;;;;;12.10;4.65;;;;;;;5.13;77.60;100539.16;5011280;28;20038;-74
2023/03/31 03:57:02;;;;;;;10.38;4.82;;;;;;;5.23;78.17;100532.94;5010883;28;20108;-72
2023/03/31 03:59:28;;;;;;;8.75;4.80;;;;;;;5.38;78.04;100532.94;5010761;28;20033;-75
2023/03/31 04:01:53;;;;;;;6.70;3.80;;;;;;;5.35;75.81;100520.84;5010846;28;20129;-73
2023/03/31 04:04:19;;;;;;;7.45;4.63;;;;;;;5.54;75.67;100547.53;5011029;28;20037;-70
2023/03/31 04:06:44;;;;;;;9.13;4.05;;;;;;;5.60;75.97;100524.84;5010942;28;20507;-73
2023/03/31 04:09:10;;;;;;;7.72;4.63;;;;;;;5.77;75.69;100535.16;5010935;28;20038;-74
2023/03/31 04:11:35;;;;;;;12.23;5.53;;;;;;;5.88;75.72;100513.63;5010948;28;20088;-73
2023/03/31 04:14:01;;;;;;;7.55;4.90;;;;;;;6.03;75.17;100507.63;5010369;28;20029;-74
2023/03/31 04:16:26;;;;;;;10.75;5.82;;;;;;;6.26;75.27;100517.47;5010497;28;20041;-76
2023/03/31 04:18:55;;;;;;;10.77;5.85;;;;;;;6.40;75.89;100535.28;5010821;28;20037;-73
2023/03/31 04:21:23;;;;;;;8.97;5.13;;;;;;;6.47;76.05;100525.44;5010718;28;20484;-72
2023/03/31 04:23:57;;;;;;;10.07;6.03;;;;;;;6.41;76.60;100507.16;5042282;28;20263;-74
2023/03/31 04:26:29;;;;;;;9.60;5.70;;;;;;;6.28;76.91;100473.97;5040704;28;20128;-74
2023/03/31 04:28:59;;;;;;;12.90;5.90;;;;;;;6.53;76.59;100535.16;5052360;28;20495;-70
2023/03/31 04:31:25;;;;;;;11.75;5.90;;;;;;;6.51;76.91;100521.38;5052948;28;20395;-70
2023/03/31 04:33:54;;;;;;;13.32;8.90;;;;;;;6.18;77.50;100464.91;5052166;28;20119;-72
2023/03/31 04:36:20;;;;;;;16.17;10.98;;;;;;;6.29;79.37;100501.38;5052690;28;20021;-70
2023/03/31 04:38:49;;;;;;;15.60;9.82;;;;;;;6.37;79.86;100506.91;5052246;28;20043;-74
2023/03/31 04:41:16;;;;;;;14.50;8.45;;;;;;;6.34;79.48;100502.50;5052318;28;20028;-70
2023/03/31 04:43:41;;;;;;;20.05;10.77;;;;;;;6.38;79.42;100519.84;5052516;28;20029;-73
2023/03/31 04:46:08;;;;;;;13.32;8.73;;;;;;;6.35;79.94;100527.34;5052205;28;20502;-71
2023/03/31 04:48:34;;;;;;;25.23;14.05;;;;;;;6.28;80.66;100517.53;5052121;28;20104;-74
2023/03/31 04:51:00;;;;;;;13.50;8.90;;;;;;;6.24;81.80;100531.91;5052194;28;20036;-72
2023/03/31 04:53:25;;;;;;;20.40;9.57;;;;;;;6.09;81.98;100516.56;5052294;28;20063;-71
2023/03/31 04:55:51;;;;;;;17.88;12.60;;;;;;;6.23;82.11;100537.81;5052159;28;20495;-71
2023/03/31 04:58:17;;;;;;;21.67;12.57;;;;;;;6.36;81.85;100539.38;5052562;28;20028;-71
2023/03/31 05:00:42;;;;;;;24.33;12.55;;;;;;;6.44;82.27;100535.56;5052583;28;20090;-72
2023/03/31 05:03:08;;;;;;;20.20;10.27;;;;;;;6.47;81.78;100522.00;5051656;28;20118;-74
2023/03/31 05:05:34;;;;;;;16.05;8.73;;;;;;;6.42;81.82;100490.97;5052398;28;20053;-71
2023/03/31 05:08:00;;;;;;;16.63;9.05;;;;;;;6.60;81.99;100518.41;5051996;28;20098;-73
2023/03/31 05:10:25;;;;;;;14.20;9.75;;;;;;;6.56;82.21;100512.22;5051820;28;20740;-71
2023/03/31 05:12:50;;;;;;;13.38;8.50;;;;;;;6.67;81.97;100504.22;5052119;28;20376;-74
2023/03/31 05:15:16;;;;;;;16.33;9.15;;;;;;;6.69;80.62;100505.19;5050983;28;20032;-71
2023/03/31 05:17:41;;;;;;;14.13;9.65;;;;;;;6.42;80.56;100467.91;5051746;28;20036;-70
2023/03/31 05:20:08;;;;;;;19.70;10.70;;;;;;;6.56;81.30;100508.81;5052337;28;20031;-73
2023/03/31 05:22:38;;;;;;;12.93;8.52;;;;;;;6.37;81.82;100504.34;5052016;28;20082;-76
2023/03/31 05:25:06;;;;;;;15.80;9.00;;;;;;;6.42;81.31;100508.06;5051752;28;20037;-74
2023/03/31 05:27:32;;;;;;;13.95;9.00;;;;;;;6.61;81.35;100525.31;5051838;28;20075;-74
2023/03/31 05:29:58;;;;;;;18.17;9.55;;;;;;;6.68;79.96;100512.03;5051724;28;20053;-76
2023/03/31 05:32:24;;;;;;;14.95;9.18;;;;;;;6.61;79.50;100500.53;5051685;28;20037;-72
2023/03/31 05:34:51;;;;;;;12.27;8.55;;;;;;;6.49;79.58;100463.97;5051299;28;20033;-74
2023/03/31 05:37:19;;;;;;;12.57;8.25;;;;;;;6.66;79.92;100489.66;5051051;28;20115;-76
2023/03/31 05:39:45;;;;;;;13.35;8.10;;;;;;;6.42;81.12;100469.59;5050371;28;20392;-74
2023/03/31 05:42:10;;;;;;;15.15;8.82;;;;;;;6.28;81.57;100436.41;5051257;28;20475;-74
2023/03/31 05:44:36;;;;;;;13.13;8.68;;;;;;;6.61;82.60;100497.97;5051454;28;20032;-73
2023/03/31 05:47:02;;;;;;;16.88;10.48;;;;;;;6.63;83.16;100482.69;5051529;28;20102;-74
2023/03/31 05:49:27;;;;;;;14.50;9.65;;;;;;;6.73;83.21;100484.03;5051398;28;20025;-75
2023/03/31 05:51:53;;;;;;;15.38;9.30;;;;;;;6.72;83.50;100472.88;5047930;28;20021;-72
2023/03/31 05:54:18;;;;;;;15.35;9.48;;;;;;;6.78;82.46;100483.47;5048000;28;20108;-73
2023/03/31 05:56:44;;;;;;;15.63;9.60;;;;;;;6.82;82.40;100484.53;5049454;28;20039;-73
2023/03/31 05:59:09;;;;;;;13.07;8.43;;;;;;;6.78;82.08;100485.19;5048300;28;20025;-71
2023/03/31 06:01:35;;;;;;;14.40;8.57;;;;;;;6.66;82.46;100494.78;5050961;28;20029;-73
2023/03/31 06:04:00;;;;;;;18.60;8.85;;;;;;;6.35;82.42;100431.59;5051373;28;20021;-72
2023/03/31 06:06:26;;;;;;;12.00;7.90;;;;;;;6.41;82.75;100449.88;5050784;28;20178;-73
2023/03/31 06:08:52;;;;;;;12.65;9.10;;;;;;;6.68;83.36;100488.94;5051253;28;20047;-72
2023/03/31 06:11:22;;;;;;;13.48;7.65;;;;;;;6.70;83.04;100481.31;5050772;28;20032;-74
2023/03/31 06:13:48;;;;;;;13.90;9.02;;;;;;;6.71;82.91;100466.00;5051250;28;20054;-72
2023/03/31 06:16:16;;;;;;;14.50;9.57;;;;;;;6.77;82.48;100468.88;5047479;28;20029;-74
2023/03/31 06:18:42;;;;;;;12.48;7.80;;;;;;;6.71;82.64;100460.88;5050793;28;20056;-73
2023/03/31 06:21:11;;;;;;;13.00;8.30;;;;;;;6.90;82.32;100483.25;5050660;28;20553;-72
2023/03/31 06:23:37;;;;;;;10.02;7.70;;;;;;;6.78;83.45;100472.34;5050952;28;20036;-73
2023/03/31 06:26:07;;;;;;;14.73;9.07;;;;;;;6.91;83.61;100481.56;5032728;28;20040;-73
2023/03/31 06:28:33;;;;;;;45.75;26.73;;;;;;;7.01;83.28;100478.66;5047221;28;20039;-70
2023/03/31 06:31:21;;;;;;;30.60;19.58;;;;;;;7.09;83.44;100484.16;5045543;28;20025;-71
2023/03/31 06:33:47;;;;;;;33.58;20.77;;;;;;;6.99;83.82;100453.72;5049024;28;20036;-71
2023/03/31 06:36:15;;;;;;;21.70;14.48;;;;;;;7.33;83.02;100487.13;5050547;28;20024;-73
2023/03/31 06:38:41;;;;;;;19.73;13.10;;;;;;;7.45;83.01;100487.72;5047819;28;20490;-71
2023/03/31 06:41:08;;;;;;;12.98;7.43;;;;;;;7.55;81.64;100477.91;5050417;28;20075;-70
2023/03/31 06:43:34;;;;;;;11.18;7.45;;;;;;;7.54;82.12;100455.56;5051057;28;20021;-71
2023/03/31 06:46:00;;;;;;;11.02;6.45;;;;;;;7.75;79.94;100482.34;5045457;28;20032;-71
2023/03/31 06:48:26;;;;;;;11.57;6.78;;;;;;;7.71;79.57;100465.00;5050618;28;20029;-71
2023/03/31 06:50:53;;;;;;;11.10;7.25;;;;;;;7.79;80.14;100470.50;5049806;28;20104;-73
2023/03/31 06:53:18;;;;;;;10.48;6.53;;;;;;;7.82;78.24;100478.34;5050730;28;20114;-73
2023/03/31 06:55:43;;;;;;;10.82;6.47;;;;;;;7.71;78.10;100443.56;5050273;28;20483;-73
2023/03/31 06:58:10;;;;;;;9.23;5.82;;;;;;;7.50;77.74;100404.88;5049618;28;20128;-73
2023/03/31 07:00:36;;;;;;;8.63;5.72;;;;;;;7.99;77.45;100474.03;5046760;28;20025;-73
2023/03/31 07:03:03;;;;;;;8.45;5.60;;;;;;;8.11;77.22;100471.13;5049788;28;20031;-74
2023/03/31 07:05:30;;;;;;;8.60;5.60;;;;;;;7.89;77.70;100421.31;5014509;28;20404;-73
2023/03/31 07:07:57;;;;;;;7.80;5.15;;;;;;;7.96;76.30;100421.59;5049437;28;20521;-75
2023/03/31 07:10:23;;;;;;;10.43;5.45;;;;;;;8.05;75.81;100424.56;5049613;28;20116;-73
2023/03/31 07:12:48;;;;;;;11.75;6.40;;;;;;;8.33;76.06;100459.28;5049492;28;20039;-73
2023/03/31 07:15:14;;;;;;;9.27;5.53;;;;;;;8.40;75.29;100448.47;5045991;28;20163;-73
2023/03/31 07:17:40;;;;;;;11.90;5.70;;;;;;;8.48;74.82;100452.28;5048313;28;20116;-75
2023/03/31 07:20:11;;;;;;;11.98;6.68;;;;;;;8.42;74.74;100439.13;5049057;28;20163;-73
2023/03/31 07:22:38;;;;;;;11.70;6.82;;;;;;;8.60;74.27;100449.41;5049065;28;20024;-74
2023/03/31 07:25:04;;;;;;;16.90;7.07;;;;;;;8.67;75.00;100450.53;5048717;28;20067;-74
2023/03/31 07:27:30;;;;;;;12.90;6.05;;;;;;;8.77;75.07;100450.13;5029904;28;20603;-74
2023/03/31 07:29:55;;;;;;;8.85;6.07;;;;;;;8.89;74.91;100453.25;5048174;28;20041;-72
2023/03/31 07:32:22;;;;;;;12.73;5.88;;;;;;;8.65;75.40;100410.97;5049541;28;20025;-71
2023/03/31 07:34:47;;;;;;;13.20;6.93;;;;;;;8.78;75.11;100433.88;5046949;28;20025;-74
2023/03/31 07:37:13;;;;;;;21.48;9.60;;;;;;;8.81;75.07;100435.69;5045150;28;20711;-74
2023/03/31 07:39:38;;;;;;;16.48;9.38;;;;;;;8.95;75.57;100436.28;5048702;28;20029;-73
2023/03/31 07:42:04;;;;;;;18.50;9.05;;;;;;;8.90;76.05;100441.28;5049415;28;20450;-73
2023/03/31 07:44:32;;;;;;;22.08;9.73;;;;;;;8.99;75.21;100428.78;5049422;28;20048;-74
2023/03/31 07:47:00;;;;;;;35.33;15.88;;;;;;;9.03;75.37;100412.66;5048109;28;20060;-73
2023/03/31 07:49:25;;;;;;;36.65;16.92;;;;;;;8.96;75.03;100397.75;5047975;28;20037;-70
2023/03/31 07:51:50;;;;;;;33.53;15.55;;;;;;;9.27;75.69;100437.69;5049968;28;20033;-70
2023/03/31 07:54:16;;;;;;;40.33;18.70;;;;;;;9.42;75.07;100429.72;5049926;28;20622;-72
2023/03/31 07:56:41;;;;;;;37.67;17.60;;;;;;;9.56;74.46;100427.69;5043687;28;20488;-70
2023/03/31 07:59:07;;;;;;;33.63;16.65;;;;;;;9.38;74.65;100364.28;5048441;28;20479;-71
2023/03/31 08:01:32;;;;;;;22.05;11.13;;;;;;;9.72;71.55;100418.88;5048522;28;20040;-72
2023/03/31 08:03:58;;;;;;;26.77;10.60;;;;;;;9.79;71.61;100413.09;5042063;28;20025;-73
2023/03/31 08:06:24;;;;;;;18.50;9.13;;;;;;;9.93;70.78;100412.78;5049847;28;20116;-73
2023/03/31 08:08:51;;;;;;;22.30;10.48;;;;;;;10.01;69.84;100411.38;5050163;28;20397;-76
2023/03/31 08:11:20;;;;;;;21.77;9.95;;;;;;;9.90;68.87;100376.56;5049952;28;20025;-70
2023/03/31 08:13:46;;;;;;;18.63;9.95;;;;;;;10.11;68.57;100402.28;5031540;28;20099;-70
2023/03/31 08:16:11;;;;;;;27.48;11.10;;;;;;;9.85;69.72;100346.31;5050097;28;20033;-70
2023/03/31 08:18:37;;;;;;;17.10;9.02;;;;;;;9.99;67.58;100364.00;5050194;28;20040;-70
2023/03/31 08:21:02;;;;;;;18.08;9.20;;;;;;;10.17;67.68;100393.06;5050116;28;20108;-73
2023/03/31 08:23:28;;;;;;;13.35;8.10;;;;;;;10.32;67.35;100399.63;5050056;28;20094;-72
2023/03/31 08:25:53;;;;;;;18.83;9.27;;;;;;;10.32;68.76;100392.75;5050125;28;20489;-72
2023/03/31 08:28:18;;;;;;;20.90;8.80;;;;;;;10.10;68.81;100354.09;5049355;28;20037;-73
2023/03/31 08:30:45;;;;;;;13.20;8.27;;;;;;;10.39;68.96;100393.88;5049932;28;20406;-72
2023/03/31 08:33:13;;;;;;;12.90;7.60;;;;;;;10.42;67.75;100378.53;5049797;28;20029;-73
2023/03/31 08:35:39;;;;;;;14.10;7.22;;;;;;;10.51;67.50;100385.72;5050276;28;20048;-73
2023/03/31 08:38:05;;;;;;;12.50;7.00;;;;;;;10.59;67.26;100378.25;5049601;28;20029;-72
2023/03/31 08:40:32;;;;;;;8.77;5.97;;;;;;;10.60;66.79;100370.53;5053551;28;20037;-70
2023/03/31 08:43:05;;;;;;;12.52;5.72;;;;;;;10.67;65.38;100366.50;5053636;28;20032;-70
2023/03/31 08:45:38;;;;;;;8.73;5.88;;;;;;;10.67;66.18;100351.00;5053332;28;20048;-72
2023/03/31 08:48:18;;;;;;;12.95;6.28;;;;;;;10.77;65.52;100347.91;5053591;28;20060;-70
2023/03/31 08:50:53;;;;;;;11.25;6.30;;;;;;;10.82;65.08;100341.19;5053179;28;20071;-70
2023/03/31 08:53:28;;;;;;;9.15;5.57;;;;;;;10.78;64.83;100333.28;5051107;28;20328;-72
2023/03/31 08:55:55;;;;;;;10.80;5.60;;;;;;;10.70;64.08;100303.75;5053050;28;20033;-73
2023/03/31 08:58:21;;;;;;;9.25;4.90;;;;;;;10.84;62.79;100328.31;5053359;28;20040;-72
2023/03/31 09:00:56;;;;;;;10.38;5.53;;;;;;;10.89;62.28;100319.03;5051899;28;20047;-71
2023/03/31 09:03:36;;;;;;;8.02;5.63;;;;;;;10.93;63.39;100294.16;5052462;28;20482;-71
2023/03/31 09:06:11;;;;;;;11.05;5.72;;;;;;;10.98;63.61;100297.81;5052761;28;20487;-71
2023/03/31 09:08:38;;;;;;;13.18;6.30;;;;;;;11.13;62.25;100318.94;5052856;28;20036;-69
2023/03/31 09:11:13;;;;;;;12.82;6.05;;;;;;;11.20;62.00;100311.41;5052881;28;20090;-70
2023/03/31 09:13:43;;;;;;;10.18;5.80;;;;;;;11.23;61.59;100309.78;5052753;28;20033;-73
2023/03/31 09:16:32;;;;;;;9.77;6.15;;;;;;;11.38;62.28;100311.13;5052818;28;20036;-73
2023/03/31 09:19:01;;;;;;;15.68;5.75;;;;;;;11.45;62.61;100300.09;5052899;28;20033;-70
2023/03/31 09:21:36;;;;;;;11.73;5.35;;;;;;;11.50;62.90;100293.38;5052849;28;20045;-73
2023/03/31 09:24:19;;;;;;;11.95;6.38;;;;;;;11.06;62.02;100199.88;5052904;28;20033;-70
2023/03/31 09:26:51;;;;;;;10.23;6.50;;;;;;;11.65;61.97;100274.84;5052580;28;20032;-72
2023/03/31 09:29:23;;;;;;;9.40;6.05;;;;;;;11.65;63.65;100273.16;5052722;28;20036;-72
2023/03/31 09:31:49;;;;;;;9.00;4.78;;;;;;;11.72;62.26;100255.25;5052486;28;20033;-71
2023/03/31 09:34:30;;;;;;;10.02;5.65;;;;;;;11.65;61.92;100213.69;5052659;28;20032;-74
2023/03/31 09:36:55;;;;;;;8.25;5.25;;;;;;;12.26;59.45;100259.31;4970891;28;20038;-70
2023/03/31 09:39:21;;;;;;;10.02;4.97;;;;;;;12.46;58.94;100265.03;4971192;28;20472;-73
2023/03/31 09:41:50;;;;;;;8.98;5.30;;;;;;;12.72;57.63;100254.47;4971250;28;20088;-73
2023/03/31 09:44:31;;;;;;;8.85;4.70;;;;;;;13.04;57.45;100256.97;4969980;28;20501;-71
2023/03/31 09:46:59;;;;;;;7.82;4.68;;;;;;;13.20;56.12;100247.81;4970766;28;20062;-73
2023/03/31 09:49:32;;;;;;;12.32;5.25;;;;;;;13.25;57.39;100228.06;4970601;28;20038;-70
2023/03/31 09:52:14;;;;;;;7.05;4.38;;;;;;;13.49;56.26;100242.44;4970539;28;20043;-73
2023/03/31 09:54:51;;;;;;;9.95;4.75;;;;;;;13.56;57.53;100232.22;4971059;28;20039;-72
2023/03/31 09:57:38;;;;;;;6.95;4.45;;;;;;;13.85;56.55;100236.25;4970940;28;20047;-73
2023/03/31 10:00:14;;;;;;;7.18;4.20;;;;;;;14.02;56.46;100234.00;4970861;28;20045;-71
2023/03/31 10:02:46;;;;;;;12.77;8.20;;;;;;;14.32;55.56;100238.88;4970808;28;20043;-72
2023/03/31 10:05:32;;;;;;;8.30;4.78;;;;;;;14.53;55.08;100232.31;4970905;28;20034;-72
2023/03/31 10:08:18;;;;;;;8.07;4.32;;;;;;;14.45;54.20;100218.31;4994406;28;20500;-70
2023/03/31 10:10:47;;;;;;;6.88;4.25;;;;;;;14.36;54.44;100203.44;5032298;28;20037;-70
2023/03/31 10:13:16;;;;;;;6.30;3.63;;;;;;;14.40;54.36;100202.63;5039338;28;20036;-72
2023/03/31 10:21:39;;;;;;;6.95;3.17;;;;;;;14.77;53.42;100181.63;5364283;22;20068;-73
2023/03/31 10:24:09;;;;;;;8.05;3.72;;;;;;;15.05;53.01;100182.88;5052882;28;20029;-72
2023/03/31 10:26:35;;;;;;;7.03;3.40;;;;;;;15.13;53.02;100183.00;5052770;28;20025;-72
2023/03/31 10:29:08;;;;;;;7.10;3.53;;;;;;;15.24;51.95;100170.13;5052583;28;20033;-70
2023/03/31 10:31:36;;;;;;;7.07;4.00;;;;;;;15.42;51.56;100159.94;5052506;28;20041;-72
2023/03/31 10:34:15;;;;;;;6.50;3.38;;;;;;;15.67;51.61;100150.69;5052158;28;20120;-72
2023/03/31 10:36:46;;;;;;;7.88;3.33;;;;;;;15.83;52.03;100150.91;5052711;28;20029;-74
2023/03/31 10:39:14;;;;;;;6.28;3.63;;;;;;;15.99;51.18;100144.97;5052383;28;20052;-71
2023/03/31 10:41:40;;;;;;;5.60;3.42;;;;;;;16.09;50.90;100137.28;5052302;28;20072;-73
2023/03/31 10:44:06;;;;;;;6.10;3.35;;;;;;;16.09;51.52;100129.47;5052081;28;20025;-73
2023/03/31 10:46:48;;;;;;;7.78;3.60;;;;;;;16.39;50.33;100127.97;5052515;28;20094;-71
2023/03/31 10:49:37;;;;;;;5.53;3.20;;;;;;;16.29;50.33;100081.00;5052558;28;20078;-74
2023/03/31 10:52:02;;;;;;;7.88;3.63;;;;;;;16.57;50.87;100114.19;5052758;28;20033;-72
2023/03/31 10:54:28;;;;;;;8.65;3.60;;;;;;;16.85;51.09;100112.63;5051878;28;20509;-72
2023/03/31 10:57:04;;;;;;;7.18;3.80;;;;;;;16.90;49.94;100105.69;5051802;28;20037;-72
2023/03/31 10:59:51;;;;;;;6.50;3.55;;;;;;;17.07;49.58;100094.50;5051071;28;20467;-74
2023/03/31 11:02:46;;;;;;;5.43;3.58;;;;;;;17.13;49.55;100078.88;5051770;28;20441;-70
2023/03/31 11:05:36;;;;;;;7.28;3.55;;;;;;;17.37;49.21;100077.22;5052238;28;20113;-75
2023/03/31 11:08:17;;;;;;;9.63;4.68;;;;;;;17.60;49.17;100067.69;5052226;28;20029;-72
2023/03/31 11:10:58;;;;;;;6.97;4.05;;;;;;;17.66;50.33;100065.94;5051794;28;20027;-73
2023/03/31 11:13:57;;;;;;;7.07;3.10;;;;;;;17.61;48.88;100058.13;5052158;28;20056;-72
2023/03/31 11:16:25;;;;;;;10.25;3.30;;;;;;;17.68;48.96;100048.56;5051586;28;20051;-71
2023/03/31 11:18:58;;;;;;;7.65;2.95;;;;;;;17.77;49.28;100040.75;5051570;28;20566;-74
2023/03/31 11:23:30;;;;;;;5.45;2.53;;;;;;;17.85;47.91;99991.13;5089968;27;20893;-73
2023/03/31 11:26:08;;;;;;;7.70;3.08;;;;;;;18.24;46.63;100024.22;5090530;28;20028;-74
2023/03/31 11:28:51;;;;;;;8.13;3.60;;;;;;;18.42;47.85;100019.81;5088931;28;20496;-73
2023/03/31 11:31:50;;;;;;;6.57;3.67;;;;;;;18.53;46.96;100017.16;5090340;28;20020;-74
2023/03/31 11:34:39;;;;;;;6.75;3.35;;;;;;;18.61;47.40;100007.56;5090708;28;20429;-74
2023/03/31 11:37:30;;;;;;;6.20;3.03;;;;;;;18.76;46.08;100012.72;5090008;28;20483;-74
2023/03/31 11:40:31;;;;;;;5.35;2.70;;;;;;;18.98;46.81;100019.63;5090304;28;20119;-74
2023/03/31 11:43:22;;;;;;;5.65;3.00;;;;;;;19.12;46.23;99991.66;5067436;28;20127;-72
2023/03/31 11:45:53;;;;;;;5.93;3.17;;;;;;;19.18;45.57;99996.84;5027980;28;20396;-74
2023/03/31 11:48:58;;;;;;;6.43;3.00;;;;;;;19.22;46.31;99995.94;5027644;28;20057;-72
2023/03/31 11:51:32;;;;;;;8.45;2.85;;;;;;;19.16;46.03;99998.59;5008179;28;20038;-74
2023/03/31 11:54:00;;;;;;;5.35;2.88;;;;;;;19.36;46.84;99990.63;4991409;28;20042;-72
2023/03/31 11:56:34;;;;;;;7.68;3.00;;;;;;;19.55;45.55;99975.66;5007929;28;20049;-74